Teyateyaneng, Lesotho
Current Conditions -  °F | °C
As of 8:00 AM on Sunday 23 Nov 2014 (Local Time) from FABL Reporting Station
Light Rain Light Rain  
Wind Chill: 15°   Ceiling: 1500
Heat Index: 15°   Visibility: 4mi
Dew Point: 14°   Wind: 3mph
Humidity: 94%   Direction: 150°SSE
Pressure: 30.18"   Gusts: NA
Location:  29.15°S, 27.74°E
Report Text: FABL 230600Z 15003KT 120V180 7000 -RA BR BKN015 BKN040 15/14 Q1022 NOSIG
Loading
Personal Weather Stations






























Interactive Weather Map New forecast layout! Learn more

10-Day Weather Forecast

Advertisements
Track Severe Weather on mobile